Time,TemperatureF,DewpointF,PressureIn,WindDirection,WindDirectionDegrees,WindSpeedMPH,WindSpeedGustMPH,Humidity,HourlyPrecipIn,Conditions,Clouds,dailyrainin,SoftwareType,DateUTC
2013-04-04 00:03:00,34.0,15.0,-100.00,WSW,250,2.0,7.0,44,0.00,,,-99.99,,2013-04-04 04:03:00,
2013-04-04 00:12:00,34.0,15.0,-100.00,West,280,4.0,7.0,44,0.00,,,-99.99,,2013-04-04 04:12:00,
2013-04-04 00:23:00,34.0,14.0,-100.00,NW,305,4.0,9.0,44,0.00,,,-99.99,,2013-04-04 04:23:00,
2013-04-04 00:33:00,33.0,15.0,-100.00,West,280,1.0,7.0,45,0.00,,,-99.99,,2013-04-04 04:33:00,
2013-04-04 00:43:00,33.0,15.0,-100.00,West,270,2.0,6.0,46,0.00,,,-99.99,,2013-04-04 04:43:00,
2013-04-04 00:52:00,33.0,15.0,-100.00,West,260,2.0,5.0,46,0.00,,,-99.99,,2013-04-04 04:52:00,
2013-04-04 01:02:00,33.0,15.0,-100.00,WSW,250,1.0,7.0,47,0.00,,,-99.99,,2013-04-04 05:02:00,
2013-04-04 01:13:00,32.0,15.0,-100.00,WNW,295,2.0,4.0,49,0.00,,,-99.99,,2013-04-04 05:13:00,
2013-04-04 01:23:00,32.0,16.0,-100.00,WSW,240,1.0,7.0,51,0.00,,,-99.99,,2013-04-04 05:23:00,
2013-04-04 01:32:00,33.0,16.0,-100.00,West,260,2.0,6.0,49,0.00,,,-99.99,,2013-04-04 05:32:00,
2013-04-04 01:42:00,32.0,16.0,-100.00,West,260,1.0,4.0,50,0.00,,,-99.99,,2013-04-04 05:42:00,
2013-04-04 01:52:00,32.0,15.0,-100.00,North,355,1.0,6.0,49,0.00,,,-99.99,,2013-04-04 05:52:00,
2013-04-04 02:02:00,33.0,16.0,-100.00,West,260,4.0,10.0,48,0.00,,,-99.99,,2013-04-04 06:02:00,
2013-04-04 02:12:00,33.0,16.0,-100.00,NW,305,2.0,7.0,48,0.00,,,-99.99,,2013-04-04 06:12:00,
2013-04-04 02:22:00,33.0,16.0,-100.00,WNW,285,2.0,7.0,48,0.00,,,-99.99,,2013-04-04 06:22:00,
2013-04-04 02:32:00,33.0,15.0,-100.00,North,-999,-999.0,-999.0,46,0.00,,,-99.99,,2013-04-04 06:32:00,
2013-04-04 02:42:00,33.0,14.0,-100.00,North,350,1.0,4.0,46,0.00,,,-99.99,,2013-04-04 06:42:00,
2013-04-04 02:52:00,33.0,14.0,-100.00,SSW,210,2.0,6.0,44,0.00,,,-99.99,,2013-04-04 06:52:00,
2013-04-04 03:02:00,33.0,14.0,-100.00,SSW,210,2.0,6.0,44,0.00,,,-99.99,,2013-04-04 07:02:00,
2013-04-04 03:12:00,33.0,11.0,-100.00,SSW,200,1.0,10.0,39,0.00,,,-99.99,,2013-04-04 07:12:00,
2013-04-04 03:22:00,33.0,11.0,-100.00,NW,320,2.0,8.0,39,0.00,,,-99.99,,2013-04-04 07:22:00,
2013-04-04 03:32:00,33.0,11.0,-100.00,North,0,1.0,9.0,39,0.00,,,-99.99,,2013-04-04 07:32:00,
2013-04-04 03:43:00,33.0,11.0,-100.00,NW,315,1.0,7.0,39,0.00,,,-99.99,,2013-04-04 07:43:00,
2013-04-04 03:52:00,33.0,12.0,-100.00,WNW,295,1.0,3.0,41,0.00,,,-99.99,,2013-04-04 07:52:00,
2013-04-04 04:02:00,32.0,12.0,-100.00,WNW,300,2.0,4.0,42,0.00,,,-99.99,,2013-04-04 08:02:00,
2013-04-04 04:12:00,31.0,12.0,-100.00,NW,315,1.0,2.0,43,0.00,,,-99.99,,2013-04-04 08:12:00,
2013-04-04 04:23:00,31.0,11.0,-100.00,WNW,295,1.0,2.0,42,0.00,,,-99.99,,2013-04-04 08:23:00,
2013-04-04 04:32:00,31.0,12.0,-100.00,NNW,335,1.0,3.0,44,0.00,,,-99.99,,2013-04-04 08:32:00,
2013-04-04 04:43:00,32.0,12.0,-100.00,West,280,1.0,7.0,43,0.00,,,-99.99,,2013-04-04 08:43:00,
2013-04-04 04:52:00,32.0,11.0,-100.00,WSW,255,1.0,4.0,41,0.00,,,-99.99,,2013-04-04 08:52:00,
2013-04-04 05:03:00,31.0,11.0,-100.00,SW,235,1.0,4.0,42,0.00,,,-99.99,,2013-04-04 09:03:00,
2013-04-04 05:12:00,31.0,13.0,-100.00,SW,220,1.0,4.0,47,0.00,,,-99.99,,2013-04-04 09:12:00,
2013-04-04 05:22:00,30.0,13.0,-100.00,NW,305,1.0,2.0,47,0.00,,,-99.99,,2013-04-04 09:22:00,
2013-04-04 05:34:00,30.0,13.0,-100.00,West,280,1.0,2.0,48,0.00,,,-99.99,,2013-04-04 09:34:00,
2013-04-04 05:43:00,30.0,12.0,-100.00,WSW,255,2.0,4.0,45,0.00,,,-99.99,,2013-04-04 09:43:00,
2013-04-04 05:53:00,30.0,12.0,-100.00,WSW,245,2.0,6.0,47,0.00,,,-99.99,,2013-04-04 09:53:00,
2013-04-04 06:04:00,30.0,12.0,-100.00,East,80,1.0,6.0,45,0.00,,,-99.99,,2013-04-04 10:04:00,
2013-04-04 06:12:00,31.0,12.0,-100.00,West,265,2.0,6.0,46,0.00,,,-99.99,,2013-04-04 10:12:00,
2013-04-04 06:24:00,31.0,12.0,-100.00,WSW,250,2.0,6.0,46,0.00,,,-99.99,,2013-04-04 10:24:00,
2013-04-04 06:33:00,31.0,13.0,-100.00,West,280,2.0,7.0,46,0.00,,,-99.99,,2013-04-04 10:33:00,
2013-04-04 06:42:00,31.0,13.0,-100.00,SSW,195,2.0,7.0,46,0.00,,,-99.99,,2013-04-04 10:42:00,
2013-04-04 06:53:00,31.0,13.0,-100.00,WSW,245,4.0,7.0,47,0.00,,,-99.99,,2013-04-04 10:53:00,
2013-04-04 07:02:00,31.0,13.0,-100.00,WSW,255,3.0,7.0,47,0.00,,,-99.99,,2013-04-04 11:02:00,
2013-04-04 07:12:00,31.0,13.0,-100.00,WSW,245,1.0,7.0,46,0.00,,,-99.99,,2013-04-04 11:12:00,
2013-04-04 07:22:00,31.0,13.0,-100.00,West,275,1.0,9.0,46,0.00,,,-99.99,,2013-04-04 11:22:00,
2013-04-04 07:33:00,32.0,13.0,-100.00,West,270,2.0,9.0,45,0.00,,,-99.99,,2013-04-04 11:33:00,
2013-04-04 07:42:00,33.0,13.0,-100.00,WNW,285,4.0,7.0,44,0.00,,,-99.99,,2013-04-04 11:42:00,
2013-04-04 07:53:00,33.0,13.0,-100.00,SE,135,2.0,9.0,42,0.00,,,-99.99,,2013-04-04 11:53:00,
2013-04-04 08:03:00,34.0,13.0,-100.00,South,170,2.0,4.0,41,0.00,,,-99.99,,2013-04-04 12:03:00,
2013-04-04 08:12:00,35.0,13.0,-100.00,West,265,2.0,7.0,40,0.00,,,-99.99,,2013-04-04 12:12:00,
2013-04-04 08:22:00,35.0,13.0,-100.00,SSE,155,3.0,8.0,40,0.00,,,-99.99,,2013-04-04 12:22:00,
2013-04-04 08:33:00,35.0,13.0,-100.00,South,175,4.0,8.0,39,0.00,,,-99.99,,2013-04-04 12:33:00,
2013-04-04 08:43:00,35.0,13.0,-100.00,SW,225,3.0,8.0,38,0.00,,,-99.99,,2013-04-04 12:43:00,
2013-04-04 08:52:00,36.0,12.0,-100.00,SSW,200,4.0,7.0,37,0.00,,,-99.99,,2013-04-04 12:52:00,
2013-04-04 09:02:00,36.0,11.0,-100.00,SSW,200,3.0,7.0,35,0.00,,,-99.99,,2013-04-04 13:02:00,
2013-04-04 09:12:00,37.0,12.0,-100.00,WSW,245,4.0,9.0,35,0.00,,,-99.99,,2013-04-04 13:12:00,
2013-04-04 09:22:00,38.0,12.0,-100.00,SSE,160,2.0,7.0,34,0.00,,,-99.99,,2013-04-04 13:22:00,
2013-04-04 09:32:00,38.0,12.0,-100.00,South,175,4.0,12.0,34,0.00,,,-99.99,,2013-04-04 13:32:00,
2013-04-04 09:42:00,39.0,11.0,-100.00,SSE,165,2.0,10.0,31,0.00,,,-99.99,,2013-04-04 13:42:00,
2013-04-04 09:52:00,39.0,11.0,-100.00,SSE,165,4.0,11.0,30,0.00,,,-99.99,,2013-04-04 13:52:00,
2013-04-04 10:03:00,39.0,10.0,-100.00,SSW,210,4.0,9.0,29,0.00,,,-99.99,,2013-04-04 14:03:00,
2013-04-04 10:13:00,40.0,10.0,-100.00,South,180,4.0,12.0,27,0.00,,,-99.99,,2013-04-04 14:13:00,
2013-04-04 10:22:00,40.0,9.0,-100.00,WNW,285,4.0,9.0,26,0.00,,,-99.99,,2013-04-04 14:22:00,
2013-04-04 10:33:00,42.0,9.0,-100.00,North,350,3.0,7.0,26,0.00,,,-99.99,,2013-04-04 14:33:00,
2013-04-04 10:43:00,41.0,9.0,-100.00,South,180,4.0,9.0,26,0.00,,,-99.99,,2013-04-04 14:43:00,
2013-04-04 10:52:00,42.0,9.0,-100.00,SSW,205,3.0,9.0,25,0.00,,,-99.99,,2013-04-04 14:52:00,
2013-04-04 11:02:00,42.0,8.0,-100.00,South,185,4.0,8.0,24,0.00,,,-99.99,,2013-04-04 15:02:00,
2013-04-04 11:12:00,42.0,8.0,-100.00,NW,310,3.0,7.0,23,0.00,,,-99.99,,2013-04-04 15:12:00,
2013-04-04 11:23:00,44.0,8.0,-100.00,West,270,4.0,10.0,22,0.00,,,-99.99,,2013-04-04 15:23:00,
2013-04-04 11:33:00,44.0,7.0,-100.00,SSW,200,3.0,10.0,21,0.00,,,-99.99,,2013-04-04 15:33:00,
2013-04-04 11:43:00,45.0,10.0,-100.00,South,190,4.0,8.0,23,0.00,,,-99.99,,2013-04-04 15:43:00,
2013-04-04 11:53:00,44.0,9.0,-100.00,WSW,240,2.0,9.0,23,0.00,,,-99.99,,2013-04-04 15:53:00,
2013-04-04 12:03:00,46.0,9.0,-100.00,West,265,3.0,9.0,22,0.00,,,-99.99,,2013-04-04 16:03:00,
2013-04-04 12:12:00,46.0,9.0,-100.00,South,175,4.0,9.0,21,0.00,,,-99.99,,2013-04-04 16:12:00,
2013-04-04 12:24:00,47.0,9.0,-100.00,SSW,210,4.0,11.0,21,0.00,,,-99.99,,2013-04-04 16:24:00,
2013-04-04 12:33:00,47.0,11.0,-100.00,East,90,6.0,12.0,22,0.00,,,-99.99,,2013-04-04 16:33:00,
2013-04-04 12:42:00,46.0,9.0,-100.00,SE,130,4.0,12.0,21,0.00,,,-99.99,,2013-04-04 16:42:00,
2013-04-04 12:53:00,47.0,10.0,-100.00,SE,140,5.0,10.0,21,0.00,,,-99.99,,2013-04-04 16:53:00,
2013-04-04 13:03:00,48.0,11.0,-100.00,SW,225,3.0,10.0,21,0.00,,,-99.99,,2013-04-04 17:03:00,
2013-04-04 13:13:00,48.0,8.0,-100.00,South,185,4.0,12.0,19,0.00,,,-99.99,,2013-04-04 17:13:00,
2013-04-04 13:23:00,49.0,8.0,-100.00,SW,220,4.0,11.0,19,0.00,,,-99.99,,2013-04-04 17:23:00,
2013-04-04 13:33:00,49.0,11.0,-100.00,South,190,6.0,11.0,20,0.00,,,-99.99,,2013-04-04 17:33:00,
2013-04-04 13:42:00,50.0,10.0,-100.00,SE,130,7.0,12.0,19,0.00,,,-99.99,,2013-04-04 17:42:00,
2013-04-04 13:52:00,50.0,11.0,-100.00,ESE,120,6.0,15.0,20,0.00,,,-99.99,,2013-04-04 17:52:00,
2013-04-04 14:02:00,50.0,11.0,-100.00,SE,140,3.0,15.0,20,0.00,,,-99.99,,2013-04-04 18:02:00,
2013-04-04 14:12:00,51.0,10.0,-100.00,WSW,250,6.0,10.0,18,0.00,,,-99.99,,2013-04-04 18:12:00,
2013-04-04 14:23:00,52.0,12.0,-100.00,SW,235,4.0,10.0,19,0.00,,,-99.99,,2013-04-04 18:23:00,
2013-04-04 14:32:00,52.0,11.0,-100.00,SE,135,7.0,17.0,19,0.00,,,-99.99,,2013-04-04 18:32:00,
2013-04-04 14:43:00,52.0,12.0,-100.00,SSE,160,4.0,17.0,19,0.00,,,-99.99,,2013-04-04 18:43:00,
2013-04-04 14:52:00,54.0,12.0,-100.00,SSW,200,3.0,10.0,18,0.00,,,-99.99,,2013-04-04 18:52:00,
2013-04-04 15:02:00,53.0,9.0,-100.00,SSW,210,7.0,13.0,16,0.00,,,-99.99,,2013-04-04 19:02:00,
2013-04-04 15:12:00,54.0,9.0,-100.00,SE,140,7.0,14.0,16,0.00,,,-99.99,,2013-04-04 19:12:00,
2013-04-04 15:22:00,55.0,9.0,-100.00,South,180,6.0,15.0,15,0.00,,,-99.99,,2013-04-04 19:22:00,
2013-04-04 15:33:00,55.0,10.0,-100.00,SSE,165,4.0,12.0,16,0.00,,,-99.99,,2013-04-04 19:33:00,
2013-04-04 15:42:00,56.0,10.0,-100.00,SE,130,4.0,10.0,15,0.00,,,-99.99,,2013-04-04 19:42:00,
2013-04-04 15:52:00,56.0,9.0,-100.00,South,180,6.0,14.0,15,0.00,,,-99.99,,2013-04-04 19:52:00,
2013-04-04 16:04:00,56.0,9.0,-100.00,South,190,5.0,11.0,14,0.00,,,-99.99,,2013-04-04 20:04:00,
2013-04-04 16:12:00,56.0,9.0,-100.00,South,170,6.0,13.0,14,0.00,,,-99.99,,2013-04-04 20:12:00,
2013-04-04 16:23:00,56.0,10.0,-100.00,South,180,6.0,13.0,15,0.00,,,-99.99,,2013-04-04 20:23:00,
2013-04-04 16:32:00,56.0,10.0,-100.00,SSE,160,7.0,16.0,15,0.00,,,-99.99,,2013-04-04 20:32:00,
2013-04-04 16:42:00,56.0,10.0,-100.00,SSE,150,6.0,16.0,15,0.00,,,-99.99,,2013-04-04 20:42:00,
2013-04-04 16:52:00,57.0,10.0,-100.00,SSE,165,4.0,13.0,15,0.00,,,-99.99,,2013-04-04 20:52:00,
2013-04-04 17:02:00,57.0,11.0,-100.00,South,180,6.0,14.0,15,0.00,,,-99.99,,2013-04-04 21:02:00,
2013-04-04 17:12:00,57.0,11.0,-100.00,SSE,150,7.0,12.0,16,0.00,,,-99.99,,2013-04-04 21:12:00,
2013-04-04 17:22:00,57.0,12.0,-100.00,SSE,155,3.0,12.0,16,0.00,,,-99.99,,2013-04-04 21:22:00,
2013-04-04 17:32:00,57.0,12.0,-100.00,SSW,195,3.0,13.0,16,0.00,,,-99.99,,2013-04-04 21:32:00,
2013-04-04 17:43:00,56.0,11.0,-100.00,North,-999,-999.0,-999.0,16,-99.99,,,-99.99,,2013-04-04 21:43:00,
2013-04-04 17:52:00,56.0,11.0,-100.00,SSW,195,6.0,17.0,16,0.00,,,-99.99,,2013-04-04 21:52:00,
2013-04-04 18:04:00,56.0,12.0,-100.00,South,170,4.0,13.0,17,0.00,,,-99.99,,2013-04-04 22:04:00,
2013-04-04 18:12:00,55.0,13.0,-100.00,South,175,6.0,11.0,18,0.00,,,-99.99,,2013-04-04 22:12:00,
2013-04-04 18:23:00,55.0,13.0,-100.00,South,175,4.0,12.0,18,0.00,,,-99.99,,2013-04-04 22:23:00,
2013-04-04 18:33:00,55.0,13.0,-100.00,SSE,160,4.0,17.0,19,0.00,,,-99.99,,2013-04-04 22:33:00,
2013-04-04 18:42:00,54.0,14.0,-100.00,South,175,4.0,12.0,19,0.00,,,-99.99,,2013-04-04 22:42:00,
2013-04-04 18:53:00,54.0,14.0,-100.00,South,170,7.0,12.0,20,0.00,,,-99.99,,2013-04-04 22:53:00,
2013-04-04 19:03:00,53.0,13.0,-100.00,ESE,115,4.0,10.0,20,0.00,,,-99.99,,2013-04-04 23:03:00,
2013-04-04 19:12:00,53.0,14.0,-100.00,SSE,155,2.0,9.0,21,0.00,,,-99.99,,2013-04-04 23:12:00,
2013-04-04 19:22:00,52.0,15.0,-100.00,SSE,155,3.0,6.0,22,0.00,,,-99.99,,2013-04-04 23:22:00,
2013-04-04 19:32:00,51.0,15.0,-100.00,SE,135,4.0,9.0,23,0.00,,,-99.99,,2013-04-04 23:32:00,
2013-04-04 19:42:00,51.0,15.0,-100.00,SE,145,4.0,11.0,23,0.00,,,-99.99,,2013-04-04 23:42:00,
2013-04-04 19:52:00,51.0,15.0,-100.00,SE,140,4.0,7.0,23,0.00,,,-99.99,,2013-04-04 23:52:00,
2013-04-04 20:02:00,50.0,15.0,-100.00,SE,130,4.0,7.0,24,0.00,,,-99.99,,2013-04-05 00:02:00,
2013-04-04 20:12:00,49.0,15.0,-100.00,SE,135,4.0,9.0,25,0.00,,,-99.99,,2013-04-05 00:12:00,
2013-04-04 20:22:00,49.0,16.0,-100.00,SE,135,3.0,8.0,25,0.00,,,-99.99,,2013-04-05 00:22:00,
2013-04-04 20:32:00,49.0,15.0,-100.00,East,95,1.0,4.0,25,0.00,,,-99.99,,2013-04-05 00:32:00,
2013-04-04 20:42:00,47.0,17.0,-100.00,ESE,110,1.0,4.0,28,0.00,,,-99.99,,2013-04-05 00:42:00,
2013-04-04 20:52:00,48.0,16.0,-100.00,East,95,2.0,4.0,27,0.00,,,-99.99,,2013-04-05 00:52:00,
2013-04-04 21:02:00,47.0,17.0,-100.00,ESE,115,2.0,4.0,30,0.00,,,-99.99,,2013-04-05 01:02:00,
2013-04-04 21:12:00,47.0,19.0,-100.00,East,85,2.0,4.0,31,0.00,,,-99.99,,2013-04-05 01:12:00,
2013-04-04 21:22:00,47.0,16.0,-100.00,ENE,65,1.0,3.0,28,0.00,,,-99.99,,2013-04-05 01:22:00,
2013-04-04 21:32:00,47.0,18.0,-100.00,East,80,1.0,4.0,30,0.00,,,-99.99,,2013-04-05 01:32:00,
2013-04-04 21:42:00,47.0,16.0,-100.00,East,90,2.0,4.0,27,0.00,,,-99.99,,2013-04-05 01:42:00,
2013-04-04 21:52:00,46.0,15.0,-100.00,ESE,105,2.0,4.0,28,0.00,,,-99.99,,2013-04-05 01:52:00,
2013-04-04 22:03:00,46.0,18.0,-100.00,ESE,120,2.0,4.0,31,0.00,,,-99.99,,2013-04-05 02:03:00,
2013-04-04 22:12:00,45.0,17.0,-100.00,East,100,2.0,7.0,30,0.00,,,-99.99,,2013-04-05 02:12:00,
2013-04-04 22:22:00,45.0,16.0,-100.00,ESE,105,2.0,4.0,30,0.00,,,-99.99,,2013-04-05 02:22:00,
2013-04-04 22:32:00,45.0,17.0,-100.00,East,100,1.0,7.0,32,0.00,,,-99.99,,2013-04-05 02:32:00,
2013-04-04 22:42:00,45.0,18.0,-100.00,East,100,2.0,4.0,34,0.00,,,-99.99,,2013-04-05 02:42:00,
2013-04-04 22:52:00,44.0,19.0,-100.00,SE,125,2.0,4.0,37,0.00,,,-99.99,,2013-04-05 02:52:00,
2013-04-04 23:02:00,44.0,19.0,-100.00,ESE,110,2.0,6.0,37,0.00,,,-99.99,,2013-04-05 03:02:00,
2013-04-04 23:12:00,44.0,20.0,-100.00,SE,135,3.0,7.0,38,0.00,,,-99.99,,2013-04-05 03:12:00,
2013-04-04 23:22:00,44.0,21.0,-100.00,ESE,110,3.0,7.0,39,0.00,,,-99.99,,2013-04-05 03:22:00,
2013-04-04 23:32:00,44.0,21.0,-100.00,East,100,4.0,9.0,39,0.00,,,-99.99,,2013-04-05 03:32:00,
2013-04-04 23:43:00,44.0,21.0,-100.00,ESE,105,2.0,6.0,40,0.00,,,-99.99,,2013-04-05 03:43:00,
2013-04-04 23:53:00,44.0,21.0,-100.00,ESE,105,3.0,6.0,40,0.00,,,-99.99,,2013-04-05 03:53:00,